createdAt,value
2022-12-27T00:00:28.997Z,4.53
2022-12-27T00:03:31.658Z,4.46
2022-12-27T00:06:34.653Z,4.44
2022-12-27T00:09:37.537Z,4.46
2022-12-27T00:12:40.911Z,4.44
2022-12-27T00:15:43.490Z,4.47
2022-12-27T00:18:47.181Z,4.43
2022-12-27T00:21:49.623Z,4.43
2022-12-27T00:24:52.437Z,4.58
2022-12-27T00:27:55.326Z,4.59
2022-12-27T00:30:59.377Z,4.54
2022-12-27T00:34:04.059Z,4.49
2022-12-27T00:37:07.209Z,4.45
2022-12-27T00:40:10.798Z,4.50
2022-12-27T00:43:14.061Z,4.44
2022-12-27T00:46:17.026Z,4.47
2022-12-27T00:49:20.841Z,4.40
2022-12-27T00:52:23.258Z,4.44
2022-12-27T00:55:26.085Z,4.42
2022-12-27T00:58:28.794Z,4.35
2022-12-27T01:01:35.511Z,4.24
2022-12-27T01:04:38.491Z,4.14
2022-12-27T01:07:41.352Z,4.19
2022-12-27T01:10:44.131Z,4.23
2022-12-27T01:13:47.551Z,4.29
2022-12-27T01:16:49.990Z,4.36
2022-12-27T01:19:52.891Z,4.36
2022-12-27T01:22:55.364Z,4.28
2022-12-27T01:26:02.527Z,4.33
2022-12-27T01:29:05.438Z,4.29
2022-12-27T01:32:09.128Z,4.31
2022-12-27T01:35:11.840Z,4.29
2022-12-27T01:38:15.025Z,4.30
2022-12-27T01:41:43.237Z,4.35
2022-12-27T01:44:53.702Z,4.41
2022-12-27T01:48:20.209Z,4.36
2022-12-27T01:51:23.370Z,4.35
2022-12-27T01:54:25.923Z,4.33
2022-12-27T01:57:29.520Z,4.32
2022-12-27T02:00:32.438Z,4.25
2022-12-27T02:03:46.627Z,4.18
2022-12-27T02:06:49.543Z,4.25
2022-12-27T02:09:58.363Z,4.15
2022-12-27T02:13:02.889Z,4.14
2022-12-27T02:16:17.081Z,4.19
2022-12-27T02:19:41.323Z,4.19
2022-12-27T02:23:11.755Z,4.22
2022-12-27T02:26:27.865Z,4.24
2022-12-27T02:29:44.062Z,4.26
2022-12-27T02:32:58.670Z,4.28
2022-12-27T02:36:05.554Z,4.24
2022-12-27T02:39:11.027Z,4.30
2022-12-27T02:42:34.467Z,4.26
2022-12-27T02:46:02.854Z,4.25
2022-12-27T02:49:43.759Z,4.31
2022-12-27T02:53:10.381Z,4.32
2022-12-27T02:57:10.041Z,4.35
2022-12-27T03:00:42.883Z,4.30
2022-12-27T03:04:23.661Z,4.28
2022-12-27T03:07:48.536Z,4.26
2022-12-27T03:11:18.641Z,4.27
2022-12-27T03:14:47.006Z,4.28
2022-12-27T03:18:00.994Z,4.25
2022-12-27T03:21:24.996Z,4.19
2022-12-27T03:24:51.030Z,4.16
2022-12-27T03:28:39.657Z,4.15
2022-12-27T03:32:05.565Z,4.14
2022-12-27T03:35:15.737Z,4.13
2022-12-27T03:38:18.631Z,4.19
2022-12-27T03:41:56.538Z,4.09
2022-12-27T03:44:59.214Z,4.02
2022-12-27T03:48:05.896Z,3.93
2022-12-27T03:51:09.204Z,3.91
2022-12-27T03:54:18.875Z,3.97
2022-12-27T03:57:24.405Z,3.98
2022-12-27T04:00:27.345Z,4.02
2022-12-27T04:03:30.174Z,4.11
2022-12-27T04:06:33.456Z,3.98
2022-12-27T04:09:54.730Z,3.94
2022-12-27T04:13:15.556Z,3.92
2022-12-27T04:16:36.776Z,3.85
2022-12-27T04:19:57.833Z,3.80
2022-12-27T04:23:19.193Z,3.81
2022-12-27T04:26:40.582Z,3.91
2022-12-27T04:30:01.646Z,3.86
2022-12-27T04:33:22.673Z,3.96
2022-12-27T04:36:25.344Z,3.90
2022-12-27T04:39:28.196Z,3.93
2022-12-27T04:42:49.742Z,4.00
2022-12-27T04:46:11.208Z,3.95
2022-12-27T04:49:45.510Z,3.90
2022-12-27T04:53:06.802Z,3.86
2022-12-27T04:56:09.816Z,3.83
2022-12-27T04:59:30.817Z,3.80
2022-12-27T05:02:34.234Z,3.79
2022-12-27T05:05:38.275Z,3.80
2022-12-27T05:09:00.621Z,3.84
2022-12-27T05:12:21.864Z,3.73
2022-12-27T05:15:25.043Z,3.75
2022-12-27T05:18:27.796Z,3.71
2022-12-27T05:21:30.530Z,3.65
2022-12-27T05:24:51.457Z,3.67
2022-12-27T05:27:54.668Z,3.65
2022-12-27T05:31:02.658Z,3.64
2022-12-27T05:34:06.818Z,3.54
2022-12-27T05:37:09.516Z,3.55
2022-12-27T05:40:12.767Z,3.41
2022-12-27T05:43:15.598Z,3.36
2022-12-27T05:46:21.198Z,3.29
2022-12-27T05:49:24.268Z,3.26
2022-12-27T05:52:26.943Z,3.32
2022-12-27T05:55:29.316Z,3.29
2022-12-27T05:58:32.655Z,3.28
2022-12-27T06:01:35.533Z,3.27
2022-12-27T06:04:38.216Z,3.22
2022-12-27T06:07:40.983Z,3.08
2022-12-27T06:10:43.877Z,3.04
2022-12-27T06:13:51.613Z,2.97
2022-12-27T06:16:54.677Z,2.98
2022-12-27T06:19:57.546Z,2.94
2022-12-27T06:23:00.538Z,3.01
2022-12-27T06:26:31.537Z,2.93
2022-12-27T06:29:34.718Z,2.84
2022-12-27T06:32:37.601Z,2.79
2022-12-27T06:35:40.331Z,2.81
2022-12-27T06:38:43.393Z,2.72
2022-12-27T06:41:46.439Z,2.71
2022-12-27T06:44:49.100Z,2.62
2022-12-27T06:47:51.981Z,2.57
2022-12-27T06:50:55.448Z,2.57
2022-12-27T06:53:58.211Z,2.57
2022-12-27T06:57:01.018Z,2.58
2022-12-27T07:00:04.919Z,2.70
2022-12-27T07:03:08.072Z,2.57
2022-12-27T07:06:12.178Z,2.61
2022-12-27T07:09:15.248Z,2.98
2022-12-27T07:12:18.758Z,4.08
2022-12-27T07:15:21.715Z,5.79
2022-12-27T07:18:24.985Z,6.88
2022-12-27T07:21:29.183Z,7.94
2022-12-27T07:24:33.494Z,8.63
2022-12-27T07:27:36.836Z,9.68
2022-12-27T07:30:41.935Z,9.83
2022-12-27T07:33:44.901Z,10.34
2022-12-27T07:36:47.635Z,11.03
2022-12-27T07:39:50.497Z,11.01
2022-12-27T07:42:53.215Z,11.48
2022-12-27T07:45:55.779Z,11.94
2022-12-27T07:48:59.977Z,13.02
2022-12-27T07:52:02.955Z,13.44
2022-12-27T07:55:06.135Z,13.33
2022-12-27T07:58:08.674Z,12.62
2022-12-27T08:01:13.161Z,13.34
2022-12-27T08:04:16.014Z,13.52
2022-12-27T08:07:20.071Z,13.86
2022-12-27T08:10:23.013Z,13.80
2022-12-27T08:13:26.859Z,14.33
2022-12-27T08:16:29.749Z,13.68
2022-12-27T08:19:32.370Z,14.17
2022-12-27T08:22:34.854Z,14.55
2022-12-27T08:25:37.309Z,14.24
2022-12-27T08:28:40.121Z,13.97
2022-12-27T08:31:42.637Z,14.01
2022-12-27T08:34:45.089Z,14.00
2022-12-27T08:37:47.550Z,14.41
2022-12-27T08:40:50.431Z,14.70
2022-12-27T08:43:52.861Z,14.84
2022-12-27T08:46:55.840Z,14.35
2022-12-27T08:49:58.709Z,15.24
2022-12-27T08:53:03.583Z,15.86
2022-12-27T08:56:06.392Z,15.58
2022-12-27T08:59:09.399Z,15.37
2022-12-27T09:02:12.355Z,15.80
2022-12-27T09:05:15.780Z,15.24
2022-12-27T09:08:18.256Z,14.24
2022-12-27T09:11:26.403Z,14.69
2022-12-27T09:14:30.354Z,15.57
2022-12-27T09:17:32.895Z,16.00
2022-12-27T09:20:35.657Z,15.42
2022-12-27T09:23:38.994Z,14.83
2022-12-27T09:26:42.054Z,15.78
2022-12-27T09:29:48.237Z,15.09
2022-12-27T09:32:51.547Z,15.78
2022-12-27T09:36:00.443Z,14.89
2022-12-27T09:39:03.203Z,15.03
2022-12-27T09:42:52.585Z,15.49
2022-12-27T09:45:57.988Z,15.74
2022-12-27T09:49:00.966Z,15.40
2022-12-27T09:52:44.170Z,15.85
2022-12-27T09:55:54.566Z,15.50
2022-12-27T09:59:20.390Z,15.91
2022-12-27T10:02:25.879Z,15.55
2022-12-27T10:05:33.701Z,16.06
2022-12-27T10:08:54.258Z,15.52
2022-12-27T10:12:17.302Z,15.72
2022-12-27T10:15:34.727Z,15.64
2022-12-27T10:18:59.543Z,16.10
2022-12-27T10:22:16.313Z,16.13
2022-12-27T10:25:21.432Z,15.71
2022-12-27T10:28:30.889Z,15.43
2022-12-27T10:31:36.672Z,15.71
2022-12-27T10:34:39.149Z,15.47
2022-12-27T10:37:44.315Z,16.25
2022-12-27T10:41:34.131Z,15.76
2022-12-27T10:44:36.652Z,15.85
2022-12-27T10:47:39.473Z,15.61
2022-12-27T10:51:06.481Z,14.29
2022-12-27T10:54:19.769Z,13.96
2022-12-27T10:57:32.329Z,14.05
2022-12-27T11:00:35.012Z,13.77
2022-12-27T11:03:37.917Z,13.03
2022-12-27T11:06:41.622Z,12.50
2022-12-27T11:09:50.712Z,12.63
2022-12-27T11:13:05.153Z,13.01
2022-12-27T11:16:15.418Z,12.99
2022-12-27T11:19:27.098Z,12.70
2022-12-27T11:22:29.978Z,12.67
2022-12-27T11:25:33.893Z,12.86
2022-12-27T11:28:41.959Z,13.14
2022-12-27T11:31:48.559Z,12.78
2022-12-27T11:34:54.749Z,12.55
2022-12-27T11:37:57.361Z,12.36
2022-12-27T11:41:05.881Z,12.61
2022-12-27T11:44:08.550Z,13.20
2022-12-27T11:47:26.369Z,12.86
2022-12-27T11:50:41.266Z,12.69
2022-12-27T11:54:14.150Z,12.51
2022-12-27T11:57:28.737Z,12.49
2022-12-27T12:01:05.307Z,12.78
2022-12-27T12:04:14.356Z,12.63
2022-12-27T12:07:25.958Z,12.29
2022-12-27T12:10:54.484Z,12.57
2022-12-27T12:14:10.662Z,12.75
2022-12-27T12:17:49.823Z,13.29
2022-12-27T12:21:10.955Z,13.46
2022-12-27T12:24:42.282Z,12.82
2022-12-27T12:28:47.239Z,13.02
2022-12-27T12:31:55.494Z,13.01
2022-12-27T12:35:21.978Z,13.40
2022-12-27T12:38:45.646Z,13.17
2022-12-27T12:42:00.364Z,12.51
2022-12-27T12:45:19.168Z,13.43
2022-12-27T12:48:42.465Z,13.72
2022-12-27T12:52:02.944Z,13.46
2022-12-27T12:55:11.142Z,13.69
2022-12-27T12:58:51.162Z,13.51
2022-12-27T13:02:09.129Z,13.35
2022-12-27T13:05:45.541Z,13.89
2022-12-27T13:09:10.838Z,14.03
2022-12-27T13:12:31.745Z,14.07
2022-12-27T13:15:58.233Z,13.44
2022-12-27T13:19:11.204Z,12.72
2022-12-27T13:22:21.214Z,12.96
2022-12-27T13:26:05.700Z,11.98
2022-12-27T13:29:23.246Z,12.12
2022-12-27T13:32:44.444Z,12.03
2022-12-27T13:36:05.201Z,11.99
2022-12-27T13:39:48.165Z,11.62
2022-12-27T13:43:11.688Z,11.32
2022-12-27T13:46:42.426Z,11.10
2022-12-27T13:50:03.410Z,10.76
2022-12-27T13:53:17.955Z,10.19
2022-12-27T14:00:21.215Z,10.00
2022-12-27T14:03:53.034Z,9.89
2022-12-27T14:07:38.163Z,9.91
2022-12-27T14:10:48.615Z,9.55
2022-12-27T14:13:52.073Z,9.80
2022-12-27T14:17:06.092Z,9.80
2022-12-27T14:20:31.319Z,9.58
2022-12-27T14:24:11.245Z,9.38
2022-12-27T14:27:25.893Z,9.03
2022-12-27T14:30:34.717Z,8.81
2022-12-27T14:34:16.616Z,8.97
2022-12-27T14:37:47.835Z,8.43
2022-12-27T14:41:27.841Z,7.76
2022-12-27T14:44:49.319Z,7.28
2022-12-27T14:48:21.131Z,6.96
2022-12-27T14:52:10.449Z,6.88
2022-12-27T14:55:49.683Z,6.88
2022-12-27T14:59:05.741Z,6.58
2022-12-27T15:02:23.874Z,6.48
2022-12-27T15:05:53.754Z,6.42
2022-12-27T15:09:05.399Z,6.35
2022-12-27T15:12:38.345Z,6.24
2022-12-27T15:15:55.782Z,6.21
2022-12-27T15:19:33.747Z,6.18
2022-12-27T15:22:52.590Z,6.08
2022-12-27T15:26:21.747Z,6.05
2022-12-27T15:29:39.717Z,6.02
2022-12-27T15:32:42.164Z,6.00
2022-12-27T15:35:56.522Z,5.96
2022-12-27T15:38:59.123Z,5.85
2022-12-27T15:42:38.816Z,5.87
2022-12-27T15:46:26.295Z,5.81
2022-12-27T15:49:58.123Z,5.81
2022-12-27T15:53:25.358Z,5.71
2022-12-27T15:56:55.388Z,5.67
2022-12-27T16:00:16.497Z,5.61
2022-12-27T16:03:34.864Z,5.46
2022-12-27T16:06:43.905Z,5.40
2022-12-27T16:09:47.231Z,5.33
2022-12-27T16:12:49.917Z,5.28
2022-12-27T16:15:56.003Z,5.23
2022-12-27T16:19:35.479Z,5.15
2022-12-27T16:22:51.252Z,5.05
2022-12-27T16:26:05.293Z,4.96
2022-12-27T16:29:15.165Z,4.92
2022-12-27T16:32:24.022Z,4.86
2022-12-27T16:35:27.507Z,4.85
2022-12-27T16:38:32.642Z,4.82
2022-12-27T16:41:50.272Z,4.79
2022-12-27T16:45:05.640Z,4.84
2022-12-27T16:48:17.609Z,4.76
2022-12-27T16:52:01.903Z,4.64
2022-12-27T16:55:18.144Z,4.59
2022-12-27T16:58:32.492Z,4.47
2022-12-27T17:01:35.252Z,4.37
2022-12-27T17:04:50.078Z,4.34
2022-12-27T17:07:53.902Z,4.17
2022-12-27T17:11:00.491Z,4.22
2022-12-27T17:14:11.554Z,4.17
2022-12-27T17:17:22.648Z,4.12
2022-12-27T17:20:25.680Z,4.04
2022-12-27T17:23:28.824Z,4.02
2022-12-27T17:27:01.588Z,3.98
2022-12-27T17:30:06.942Z,3.91
2022-12-27T17:33:27.841Z,3.86
2022-12-27T17:36:40.045Z,3.86
2022-12-27T17:40:00.872Z,3.75
2022-12-27T17:43:43.095Z,3.78
2022-12-27T17:47:15.234Z,3.74
2022-12-27T17:50:24.162Z,3.68
2022-12-27T17:53:46.002Z,3.65
2022-12-27T17:57:15.426Z,3.60
2022-12-27T18:00:26.711Z,3.63
2022-12-27T18:03:39.791Z,3.59
2022-12-27T18:06:43.586Z,3.57
2022-12-27T18:10:06.162Z,3.58
2022-12-27T18:13:18.927Z,3.60
2022-12-27T18:16:31.086Z,3.62
2022-12-27T18:19:34.010Z,3.44
2022-12-27T18:22:36.555Z,2.91
2022-12-27T18:25:45.222Z,2.51
2022-12-27T18:28:48.441Z,2.25
2022-12-27T18:31:54.032Z,2.08
2022-12-27T18:35:00.899Z,2.04
2022-12-27T18:38:08.402Z,1.97
2022-12-27T18:41:15.326Z,2.01
2022-12-27T18:44:26.859Z,2.16
2022-12-27T18:47:30.425Z,2.30
2022-12-27T18:50:34.874Z,2.25
2022-12-27T18:53:45.712Z,2.09
2022-12-27T18:56:53.436Z,1.91
2022-12-27T19:00:17.827Z,1.78
2022-12-27T19:03:21.189Z,2.02
2022-12-27T19:06:23.818Z,2.05
2022-12-27T19:09:33.981Z,1.91
2022-12-27T19:12:40.629Z,1.78
2022-12-27T19:15:45.291Z,1.59
2022-12-27T19:18:53.229Z,1.29
2022-12-27T19:21:57.456Z,1.30
2022-12-27T19:25:27.909Z,1.13
2022-12-27T19:28:31.446Z,1.26
2022-12-27T19:31:36.004Z,1.31
2022-12-27T19:34:44.741Z,1.15
2022-12-27T19:37:47.286Z,1.35
2022-12-27T19:40:58.092Z,0.89
2022-12-27T19:44:05.621Z,0.84
2022-12-27T19:47:13.548Z,0.92
2022-12-27T19:50:16.931Z,0.97
2022-12-27T19:53:24.581Z,1.17
2022-12-27T19:56:28.260Z,1.20
2022-12-27T19:59:30.910Z,1.18
2022-12-27T20:02:34.027Z,1.26
2022-12-27T20:06:11.653Z,1.53
2022-12-27T20:08:59.380Z,1.65
2022-12-27T20:12:02.502Z,1.80
2022-12-27T20:15:05.923Z,2.13
2022-12-27T20:18:09.988Z,2.07
2022-12-27T20:21:18.163Z,2.18
2022-12-27T20:24:20.681Z,2.23
2022-12-27T20:27:23.978Z,2.31
2022-12-27T20:30:26.823Z,2.14
2022-12-27T20:33:29.262Z,1.95
2022-12-27T20:36:32.337Z,1.85
2022-12-27T20:39:34.978Z,1.82
2022-12-27T20:42:37.685Z,1.91
2022-12-27T20:45:40.522Z,1.72
2022-12-27T20:48:45.719Z,1.41
2022-12-27T20:51:48.757Z,1.60
2022-12-27T20:54:51.367Z,1.32
2022-12-27T20:57:53.932Z,1.26
2022-12-27T21:00:56.989Z,1.34
2022-12-27T21:03:59.597Z,1.28
2022-12-27T21:07:02.423Z,1.18
2022-12-27T21:10:06.149Z,1.11
2022-12-27T21:13:08.873Z,1.09
2022-12-27T21:16:13.914Z,0.93
2022-12-27T21:19:16.874Z,0.78
2022-12-27T21:22:19.652Z,0.38
2022-12-27T21:25:22.369Z,0.64
2022-12-27T21:28:24.926Z,0.83
2022-12-27T21:31:28.109Z,0.85
2022-12-27T21:34:31.104Z,0.91
2022-12-27T21:37:33.919Z,0.82
2022-12-27T21:40:36.641Z,0.81
2022-12-27T21:43:39.118Z,0.62
2022-12-27T21:46:42.449Z,0.46
2022-12-27T21:49:45.186Z,0.25
2022-12-27T21:52:48.165Z,0.26
2022-12-27T21:55:58.271Z,0.36
2022-12-27T21:59:01.893Z,0.13
2022-12-27T22:02:04.697Z,0.05
2022-12-27T22:05:07.615Z,0.06
2022-12-27T22:08:10.552Z,0.05
2022-12-27T22:11:14.047Z,-0.08
2022-12-27T22:14:21.753Z,-0.49
2022-12-27T22:17:26.193Z,-0.32
2022-12-27T22:20:29.281Z,-0.42
2022-12-27T22:23:33.554Z,-0.46
2022-12-27T22:26:37.516Z,-0.35
2022-12-27T22:29:40.489Z,-0.37
2022-12-27T22:32:43.176Z,-0.43
2022-12-27T22:35:45.564Z,-0.42
2022-12-27T22:38:50.341Z,-0.37
2022-12-27T22:41:53.312Z,-0.26
2022-12-27T22:44:55.855Z,-0.24
2022-12-27T22:47:58.579Z,-0.43
2022-12-27T22:51:34.582Z,-0.41
2022-12-27T22:55:03.132Z,-0.37
2022-12-27T22:57:59.681Z,-0.33
2022-12-27T23:01:02.210Z,-0.49
2022-12-27T23:04:06.950Z,-0.55
2022-12-27T23:07:09.714Z,-0.81
2022-12-27T23:10:12.222Z,-0.99
2022-12-27T23:13:15.300Z,-0.79
2022-12-27T23:16:18.151Z,-0.72
2022-12-27T23:19:24.127Z,-0.73
2022-12-27T23:22:27.087Z,-0.78
2022-12-27T23:25:29.686Z,-0.66
2022-12-27T23:28:38.558Z,-0.93
2022-12-27T23:31:54.541Z,-0.93
2022-12-27T23:34:58.476Z,-1.08
2022-12-27T23:38:02.050Z,-1.06
2022-12-27T23:41:07.326Z,-1.06
2022-12-27T23:44:09.943Z,-1.12
2022-12-27T23:47:12.400Z,-1.28
2022-12-27T23:50:20.844Z,-1.26
2022-12-27T23:53:23.684Z,-0.99
2022-12-27T23:56:32.090Z,-1.19
2022-12-27T23:59:34.899Z,-1.31
